createdAt,value
2016-08-08T00:00:52.452Z,54.85
2016-08-08T00:01:52.482Z,55.62
2016-08-08T00:02:52.507Z,55.93
2016-08-08T00:03:52.541Z,55.26
2016-08-08T00:04:52.611Z,54.75
2016-08-08T00:05:52.588Z,54.94
2016-08-08T00:06:53.322Z,55.13
2016-08-08T00:07:53.347Z,55.71
2016-08-08T00:08:52.664Z,55.62
2016-08-08T00:09:52.693Z,55.13
2016-08-08T00:10:52.728Z,55.33
2016-08-08T00:11:52.747Z,55.81
2016-08-08T00:12:52.800Z,55.52
2016-08-08T00:13:52.806Z,55.81
2016-08-08T00:14:52.823Z,56
2016-08-08T00:15:52.852Z,55.71
2016-08-08T00:16:52.878Z,56.48
2016-08-08T00:17:52.904Z,56.29
2016-08-08T00:18:53.650Z,56.2
2016-08-08T00:19:52.955Z,55.71
2016-08-08T00:20:52.984Z,55.52
2016-08-08T00:21:53.022Z,56.38
2016-08-08T00:22:53.040Z,56.38
2016-08-08T00:23:53.774Z,55.62
2016-08-08T00:24:53.093Z,55.9
2016-08-08T00:25:53.117Z,56.29
2016-08-08T00:26:53.141Z,56.38
2016-08-08T00:27:53.167Z,56.2
2016-08-08T00:28:53.193Z,56.2
2016-08-08T00:29:53.240Z,55.81
2016-08-08T00:30:53.250Z,56.48
2016-08-08T00:31:53.274Z,56.38
2016-08-08T00:32:53.302Z,56
2016-08-08T00:33:53.327Z,56.48
2016-08-08T00:34:53.352Z,56.58
2016-08-08T00:35:53.379Z,56
2016-08-08T00:36:53.412Z,56.29
2016-08-08T00:37:53.431Z,55.81
2016-08-08T00:38:53.459Z,56.12
2016-08-08T00:39:53.486Z,56.29
2016-08-08T00:40:53.512Z,56.29
2016-08-08T00:41:53.537Z,56.58
2016-08-08T00:42:53.571Z,57.25
2016-08-08T00:43:53.590Z,56.77
2016-08-08T00:44:53.615Z,56.77
2016-08-08T00:45:54.352Z,57.06
2016-08-08T00:46:53.668Z,57.73
2016-08-08T00:47:53.697Z,57.15
2016-08-08T00:48:53.725Z,57.06
2016-08-08T00:49:53.753Z,57.64
2016-08-08T00:50:53.773Z,57.73
2016-08-08T00:51:53.801Z,57.54
2016-08-08T00:52:53.827Z,57.83
2016-08-08T00:53:53.858Z,57.73
2016-08-08T00:54:53.877Z,58.31
2016-08-08T00:55:53.916Z,58.79
2016-08-08T00:56:53.930Z,60.14
2016-08-08T00:57:53.959Z,60.14
2016-08-08T00:58:54.711Z,60.42
2016-08-08T00:59:54.018Z,61.68
2016-08-08T01:00:54.747Z,61.87
2016-08-08T01:01:54.774Z,62.06
2016-08-08T01:02:54.090Z,62.16
2016-08-08T01:03:54.116Z,62.54
2016-08-08T01:04:54.146Z,61.58
2016-08-08T01:05:54.183Z,62.16
2016-08-08T01:06:54.194Z,62.16
2016-08-08T01:07:54.931Z,59.75
2016-08-08T01:08:54.256Z,59.15
2016-08-08T01:09:54.275Z,59.44
2016-08-08T01:10:54.304Z,59.37
2016-08-08T01:11:54.327Z,58.57
2016-08-08T01:12:54.354Z,58.76
2016-08-08T01:13:54.386Z,58.95
2016-08-08T01:14:54.407Z,58.95
2016-08-08T01:15:54.437Z,59.34
2016-08-08T01:16:54.462Z,59.24
2016-08-08T01:17:54.487Z,59.05
2016-08-08T01:18:54.511Z,58.67
2016-08-08T01:19:54.537Z,59.34
2016-08-08T01:20:54.564Z,59.92
2016-08-08T01:21:54.589Z,60.59
2016-08-08T01:22:54.616Z,60.88
2016-08-08T01:23:54.653Z,61.07
2016-08-08T01:24:54.669Z,60.78
2016-08-08T01:25:54.695Z,59.72
2016-08-08T01:27:55.457Z,59.82
2016-08-08T01:28:54.772Z,60.3
2016-08-08T01:29:54.797Z,60.88
2016-08-08T01:30:54.825Z,62.03
2016-08-08T01:31:55.577Z,62.51
2016-08-08T01:32:54.881Z,63.28
2016-08-08T01:33:54.903Z,62.51
2016-08-08T01:34:54.928Z,62.51
2016-08-08T01:35:54.960Z,62.83
2016-08-08T01:36:54.982Z,62.35
2016-08-08T01:37:55.006Z,61.94
2016-08-08T01:38:55.034Z,62.45
2016-08-08T01:39:55.062Z,63.12
2016-08-08T01:40:55.099Z,62.74
2016-08-08T01:42:55.140Z,63.89
2016-08-08T01:43:55.164Z,64.66
2016-08-08T01:44:55.191Z,63.89
2016-08-08T01:45:55.218Z,62.93
2016-08-08T01:46:55.250Z,64.08
2016-08-08T01:47:55.276Z,63.12
2016-08-08T01:48:55.315Z,63.6
2016-08-08T01:49:55.334Z,63.12
2016-08-08T01:50:55.353Z,63.02
2016-08-08T01:51:55.375Z,62.45
2016-08-08T01:52:55.404Z,63.02
2016-08-08T01:53:55.432Z,62.45
2016-08-08T01:54:56.170Z,62.93
2016-08-08T01:55:55.482Z,62.06
2016-08-08T01:57:55.538Z,62.74
2016-08-08T01:58:55.561Z,62.06
2016-08-08T01:59:55.596Z,62.74
2016-08-08T02:00:55.615Z,62.74
2016-08-08T02:01:55.646Z,62.16
2016-08-08T02:02:55.668Z,61.97
2016-08-08T02:03:55.698Z,62.35
2016-08-08T02:04:55.721Z,62.64
2016-08-08T02:05:55.746Z,62.26
2016-08-08T02:06:55.774Z,61.97
2016-08-08T02:07:55.801Z,62.26
2016-08-08T02:08:55.844Z,62.06
2016-08-08T02:09:55.854Z,61.58
2016-08-08T02:10:55.880Z,62.26
2016-08-08T02:12:55.931Z,63.22
2016-08-08T02:13:55.956Z,63.31
2016-08-08T02:14:55.984Z,63.02
2016-08-08T02:15:56.010Z,63.22
2016-08-08T02:16:56.040Z,62.74
2016-08-08T02:17:56.063Z,62.35
2016-08-08T02:18:56.088Z,62.06
2016-08-08T02:19:56.127Z,62.06
2016-08-08T02:20:56.143Z,62.26
2016-08-08T02:21:56.881Z,62.26
2016-08-08T02:22:56.197Z,61.39
2016-08-08T02:23:56.220Z,61.39
2016-08-08T02:24:56.246Z,61
2016-08-08T02:25:56.280Z,60.04
2016-08-08T02:27:56.329Z,60.04
2016-08-08T02:28:56.352Z,59.27
2016-08-08T02:29:56.380Z,59.47
2016-08-08T02:30:56.407Z,59.66
2016-08-08T02:31:56.435Z,59.27
2016-08-08T02:32:56.462Z,59.75
2016-08-08T02:33:56.485Z,59.37
2016-08-08T02:34:56.509Z,59.27
2016-08-08T02:35:56.547Z,58.79
2016-08-08T02:36:56.563Z,58.98
2016-08-08T02:37:56.592Z,59.17
2016-08-08T02:38:56.617Z,59.08
2016-08-08T02:39:56.641Z,59.37
2016-08-08T02:40:56.667Z,58.89
2016-08-08T02:41:56.694Z,58.98
2016-08-08T02:42:56.720Z,59.53
2016-08-08T02:43:56.760Z,59.56
2016-08-08T02:44:56.774Z,59.27
2016-08-08T02:45:56.797Z,60.04
2016-08-08T02:46:57.535Z,59.63
2016-08-08T02:47:56.852Z,59.92
2016-08-08T02:48:56.878Z,59.63
2016-08-08T02:49:56.901Z,59.63
2016-08-08T02:50:56.930Z,60.01
2016-08-08T02:51:57.666Z,60.11
2016-08-08T02:52:57.699Z,60.21
2016-08-08T02:53:57.014Z,59.92
2016-08-08T02:54:57.034Z,59.92
2016-08-08T02:55:57.062Z,60.69
2016-08-08T02:56:57.086Z,60.59
2016-08-08T02:57:57.112Z,60.59
2016-08-08T02:58:57.136Z,60.97
2016-08-08T02:59:57.873Z,61.36
2016-08-08T03:01:12.082Z,62.61
2016-08-08T03:01:57.214Z,62.8
2016-08-08T03:02:57.248Z,62.41
2016-08-08T03:03:57.269Z,61.94
2016-08-08T03:04:57.292Z,62.23
2016-08-08T03:05:57.318Z,62.32
2016-08-08T03:06:57.346Z,62.51
2016-08-08T03:07:58.083Z,62.51
2016-08-08T03:08:57.400Z,63.28
2016-08-08T03:09:57.425Z,62.32
2016-08-08T03:10:58.159Z,62.71
2016-08-08T03:11:57.475Z,62.71
2016-08-08T03:12:57.505Z,62.61
2016-08-08T03:13:57.528Z,63.06
2016-08-08T03:14:57.554Z,62.58
2016-08-08T03:15:57.579Z,63.06
2016-08-08T03:16:57.605Z,62.19
2016-08-08T03:17:57.631Z,63.35
2016-08-08T03:18:57.667Z,62.58
2016-08-08T03:19:57.683Z,62.1
2016-08-08T03:20:58.417Z,62.48
2016-08-08T03:21:57.735Z,62.58
2016-08-08T03:22:57.765Z,62
2016-08-08T03:23:57.787Z,62
2016-08-08T03:24:57.815Z,62.48
2016-08-08T03:25:57.840Z,62.1
2016-08-08T03:26:57.867Z,61.61
2016-08-08T03:27:57.892Z,62.48
2016-08-08T03:28:57.918Z,63.06
2016-08-08T03:29:57.944Z,62.1
2016-08-08T03:30:57.970Z,62.48
2016-08-08T03:31:57.995Z,62.68
2016-08-08T03:32:58.018Z,62.68
2016-08-08T03:33:58.756Z,62.48
2016-08-08T03:34:58.072Z,62.58
2016-08-08T03:35:58.098Z,62.48
2016-08-08T03:36:58.123Z,62.68
2016-08-08T03:37:58.897Z,62.68
2016-08-08T03:38:58.185Z,61.61
2016-08-08T03:39:58.910Z,62.19
2016-08-08T03:40:58.230Z,62.48
2016-08-08T03:41:58.251Z,62.38
2016-08-08T03:42:58.990Z,62
2016-08-08T03:43:58.305Z,62.58
2016-08-08T03:44:58.328Z,62.96
2016-08-08T03:45:58.357Z,62
2016-08-08T03:46:58.412Z,61.91
2016-08-08T03:47:59.117Z,62.58
2016-08-08T03:48:58.433Z,62.77
2016-08-08T03:49:58.460Z,63.06
2016-08-08T03:50:58.485Z,63.73
2016-08-08T03:51:58.510Z,62.87
2016-08-08T03:52:59.242Z,64.12
2016-08-08T03:53:58.562Z,64.02
2016-08-08T03:54:58.585Z,64.22
2016-08-08T03:55:58.724Z,64.5
2016-08-08T03:56:58.637Z,64.98
2016-08-08T03:57:58.666Z,65.37
2016-08-08T03:58:58.687Z,65.17
2016-08-08T03:59:58.715Z,65.37
2016-08-08T04:00:58.738Z,64.98
2016-08-08T04:01:58.767Z,65.37
2016-08-08T04:02:58.790Z,65.17
2016-08-08T04:03:58.821Z,63.92
2016-08-08T04:04:58.895Z,63.54
2016-08-08T04:05:59.586Z,63.15
2016-08-08T04:06:58.894Z,62.87
2016-08-08T04:07:58.921Z,63.15
2016-08-08T04:08:58.945Z,63.25
2016-08-08T04:09:58.975Z,62.93
2016-08-08T04:10:58.999Z,63.06
2016-08-08T04:11:59.027Z,63.41
2016-08-08T04:12:59.048Z,62.93
2016-08-08T04:13:59.080Z,63.51
2016-08-08T04:14:59.104Z,62.93
2016-08-08T04:15:59.133Z,63.51
2016-08-08T04:16:59.163Z,63.32
2016-08-08T04:17:59.176Z,62.84
2016-08-08T04:18:59.212Z,63.02
2016-08-08T04:19:59.228Z,62.64
2016-08-08T04:20:59.961Z,63.99
2016-08-08T04:21:59.275Z,64.28
2016-08-08T04:23:00.026Z,65.91
2016-08-08T04:23:59.331Z,64.85
2016-08-08T04:24:59.352Z,65.62
2016-08-08T04:26:00.089Z,65.14
2016-08-08T04:26:59.427Z,65.53
2016-08-08T04:27:59.440Z,65.14
2016-08-08T04:28:59.457Z,65.62
2016-08-08T04:29:59.482Z,64.18
2016-08-08T04:30:59.507Z,63.7
2016-08-08T04:31:59.540Z,63.41
2016-08-08T04:32:59.557Z,63.89
2016-08-08T04:33:59.583Z,63.51
2016-08-08T04:34:59.612Z,63.7
2016-08-08T04:35:59.657Z,64.56
2016-08-08T04:36:59.659Z,63.7
2016-08-08T04:37:59.684Z,63.89
2016-08-08T04:38:59.712Z,63.89
2016-08-08T04:39:59.735Z,63.6
2016-08-08T04:40:59.761Z,63.41
2016-08-08T04:41:59.797Z,62.84
2016-08-08T04:42:59.823Z,63.51
2016-08-08T04:43:59.839Z,63.79
2016-08-08T04:44:59.866Z,63.79
2016-08-08T04:45:59.887Z,63.99
2016-08-08T04:47:00.623Z,64.47
2016-08-08T04:47:59.942Z,64.85
2016-08-08T04:49:00.696Z,64.18
2016-08-08T04:49:59.993Z,64.28
2016-08-08T04:51:00.019Z,64.56
2016-08-08T04:52:00.750Z,64.85
2016-08-08T04:53:00.067Z,63.7
2016-08-08T04:54:00.095Z,63.99
2016-08-08T04:55:00.119Z,63.79
2016-08-08T04:56:00.145Z,64.47
2016-08-08T04:57:00.171Z,64.22
2016-08-08T04:58:00.214Z,63.73
2016-08-08T04:59:00.220Z,63.73
2016-08-08T05:00:00.249Z,62.74
2016-08-08T05:01:00.272Z,63.02
2016-08-08T05:02:01.006Z,63.15
2016-08-08T05:03:00.323Z,63.6
2016-08-08T05:04:00.349Z,62.87
2016-08-08T05:05:00.424Z,63.35
2016-08-08T05:06:00.418Z,63.06
2016-08-08T05:07:00.433Z,63.64
2016-08-08T05:08:00.453Z,63.15
2016-08-08T05:09:00.476Z,62.96
2016-08-08T05:10:00.502Z,63.06
2016-08-08T05:11:00.527Z,62.96
2016-08-08T05:12:00.553Z,62.68
2016-08-08T05:13:01.320Z,62.29
2016-08-08T05:14:00.609Z,62.77
2016-08-08T05:15:01.342Z,63.25
2016-08-08T05:16:01.365Z,62.87
2016-08-08T05:17:00.685Z,63.25
2016-08-08T05:18:00.707Z,63.25
2016-08-08T05:19:00.737Z,62.68
2016-08-08T05:20:00.768Z,62.38
2016-08-08T05:21:00.793Z,63.15
2016-08-08T05:22:00.811Z,63.25
2016-08-08T05:23:00.836Z,62.96
2016-08-08T05:24:01.574Z,63.06
2016-08-08T05:25:00.895Z,62.48
2016-08-08T05:26:00.915Z,62.68
2016-08-08T05:27:00.943Z,62.48
2016-08-08T05:28:01.676Z,62.29
2016-08-08T05:29:00.989Z,63.35
2016-08-08T05:30:01.018Z,63.73
2016-08-08T05:31:01.043Z,62.48
2016-08-08T05:32:01.069Z,62.68
2016-08-08T05:33:01.094Z,62.51
2016-08-08T05:34:01.120Z,62.61
2016-08-08T05:35:01.144Z,62.41
2016-08-08T05:36:01.173Z,62.23
2016-08-08T05:37:01.907Z,62.71
2016-08-08T05:38:01.231Z,62.51
2016-08-08T05:39:01.252Z,61.94
2016-08-08T05:40:01.275Z,62.03
2016-08-08T05:41:01.301Z,62.8
2016-08-08T05:42:01.326Z,63.18
2016-08-08T05:43:01.351Z,63.48
2016-08-08T05:44:01.377Z,63.57
2016-08-08T05:45:01.402Z,62.51
2016-08-08T05:46:01.451Z,62.61
2016-08-08T05:47:02.162Z,62.51
2016-08-08T05:48:01.481Z,63.18
2016-08-08T05:49:01.506Z,63.12
2016-08-08T05:50:01.535Z,63.28
2016-08-08T05:51:01.559Z,64.37
2016-08-08T05:52:02.308Z,63.79
2016-08-08T05:53:01.616Z,63.02
2016-08-08T05:54:01.642Z,63.22
2016-08-08T05:55:01.674Z,62.74
2016-08-08T05:56:01.688Z,62.16
2016-08-08T05:57:01.715Z,62.45
2016-08-08T05:58:01.741Z,62.74
2016-08-08T05:59:02.480Z,63.31
2016-08-08T06:00:01.793Z,62.35
2016-08-08T06:01:01.827Z,62.06
2016-08-08T06:02:01.847Z,61.29
2016-08-08T06:03:02.588Z,61.39
2016-08-08T06:04:01.898Z,61.1
2016-08-08T06:05:01.926Z,61.49
2016-08-08T06:06:01.952Z,61.97
2016-08-08T06:07:01.978Z,61.97
2016-08-08T06:08:02.004Z,61.97
2016-08-08T06:09:02.028Z,62.35
2016-08-08T06:10:02.763Z,61.68
2016-08-08T06:11:02.081Z,61.87
2016-08-08T06:12:02.110Z,62.96
2016-08-08T06:13:02.135Z,61.61
2016-08-08T06:14:02.165Z,61.32
2016-08-08T06:15:02.186Z,61.32
2016-08-08T06:16:02.215Z,61.32
2016-08-08T06:17:02.240Z,61.13
2016-08-08T06:18:02.265Z,60.84
2016-08-08T06:19:02.292Z,60.55
2016-08-08T06:20:02.322Z,60.07
2016-08-08T06:21:02.348Z,60.75
2016-08-08T06:22:02.371Z,61.45
2016-08-08T06:23:02.397Z,60.68
2016-08-08T06:24:02.425Z,60.77
2016-08-08T06:25:02.453Z,60.49
2016-08-08T06:26:02.478Z,59.72
2016-08-08T06:27:02.504Z,60.77
2016-08-08T06:28:02.534Z,60.58
2016-08-08T06:29:02.560Z,60.87
2016-08-08T06:30:02.585Z,61.25
2016-08-08T06:31:02.612Z,61.25
2016-08-08T06:32:02.639Z,60
2016-08-08T06:33:02.667Z,59.91
2016-08-08T06:34:03.404Z,60.03
2016-08-08T06:35:02.720Z,59.75
2016-08-08T06:36:02.748Z,59.55
2016-08-08T06:37:02.772Z,59.55
2016-08-08T06:38:02.801Z,59.84
2016-08-08T06:39:02.826Z,59.65
2016-08-08T06:40:02.853Z,59.27
2016-08-08T06:41:02.883Z,59.36
2016-08-08T06:42:02.908Z,59.1
2016-08-08T06:44:02.965Z,58.81
2016-08-08T06:45:02.991Z,59
2016-08-08T06:46:03.016Z,58.42
2016-08-08T06:47:03.056Z,57.85
2016-08-08T06:48:03.070Z,58.33
2016-08-08T06:49:03.105Z,58.52
2016-08-08T06:50:03.126Z,58.62
2016-08-08T06:51:03.152Z,58.81
2016-08-08T06:52:03.186Z,58.07
2016-08-08T06:53:03.209Z,58.45
2016-08-08T06:54:03.954Z,59.03
2016-08-08T06:55:03.971Z,58.94
2016-08-08T06:56:03.293Z,58.65
2016-08-08T06:57:03.316Z,58.26
2016-08-08T06:59:03.372Z,58.07
2016-08-08T07:00:03.402Z,58.39
2016-08-08T07:01:03.427Z,56.46
2016-08-08T07:02:03.454Z,56.36
2016-08-08T07:03:03.481Z,57.32
2016-08-08T07:04:03.526Z,56.94
2016-08-08T07:05:03.543Z,56.07
2016-08-08T07:06:03.564Z,54.91
2016-08-08T07:07:03.594Z,55.68
2016-08-08T07:08:03.622Z,56
2016-08-08T07:09:03.659Z,55.62
2016-08-08T07:10:03.674Z,55.81
2016-08-08T07:11:03.703Z,55.04
2016-08-08T07:12:03.733Z,55.04
2016-08-08T07:14:04.499Z,55.71
2016-08-08T07:15:03.816Z,55.62
2016-08-08T07:16:03.844Z,55.65
2016-08-08T07:17:03.870Z,55.04
2016-08-08T07:18:03.898Z,54.97
2016-08-08T07:19:03.927Z,54.49
2016-08-08T07:20:03.954Z,54.68
2016-08-08T07:21:03.995Z,54.68
2016-08-08T07:22:04.723Z,54.29
2016-08-08T07:23:04.755Z,54.39
2016-08-08T07:24:04.067Z,54.68
2016-08-08T07:25:04.096Z,55.09
2016-08-08T07:26:04.126Z,54.51
2016-08-08T07:27:04.163Z,54.22
2016-08-08T07:28:04.182Z,54.03
2016-08-08T07:29:04.208Z,53.93
2016-08-08T07:30:04.241Z,54.13
2016-08-08T07:31:04.279Z,53.35
2016-08-08T07:32:04.295Z,53.35
2016-08-08T07:33:05.032Z,52.89
2016-08-08T07:34:04.352Z,53.77
2016-08-08T07:35:04.380Z,54.05
2016-08-08T07:36:04.409Z,54.15
2016-08-08T07:37:04.438Z,53.96
2016-08-08T07:38:04.482Z,53.47
2016-08-08T07:39:04.497Z,53.67
2016-08-08T07:40:04.524Z,53.02
2016-08-08T07:41:04.552Z,52.24
2016-08-08T07:42:04.577Z,51.76
2016-08-08T07:43:04.611Z,51.47
2016-08-08T07:44:04.640Z,52.63
2016-08-08T07:45:04.667Z,51.47
2016-08-08T07:46:04.701Z,51.66
2016-08-08T07:47:04.724Z,52.05
2016-08-08T07:48:04.755Z,51.28
2016-08-08T07:49:04.781Z,51.47
2016-08-08T07:50:04.810Z,50.98
2016-08-08T07:51:04.841Z,51.37
2016-08-08T07:52:04.871Z,51.88
2016-08-08T07:53:04.898Z,50.92
2016-08-08T07:54:04.938Z,49.95
2016-08-08T07:55:04.956Z,49.95
2016-08-08T07:56:04.985Z,49.68
2016-08-08T07:57:05.014Z,50.29
2016-08-08T07:58:05.040Z,49.44
2016-08-08T07:59:05.078Z,48.66
2016-08-08T08:00:05.101Z,48.78
2016-08-08T08:01:05.132Z,48.2
2016-08-08T08:02:05.157Z,46.28
2016-08-08T08:03:05.206Z,45.61
2016-08-08T08:04:05.218Z,46.6
2016-08-08T08:05:05.248Z,45.14
2016-08-08T08:06:05.278Z,45.65
2016-08-08T08:07:06.021Z,45.53
2016-08-08T08:08:05.332Z,46.11
2016-08-08T08:09:05.370Z,45.82
2016-08-08T08:10:05.416Z,45.82
2016-08-08T08:11:05.428Z,45.62
2016-08-08T08:12:05.454Z,46.31
2016-08-08T08:13:05.485Z,46.28
2016-08-08T08:14:05.514Z,46.69
2016-08-08T08:15:05.543Z,46.28
2016-08-08T08:16:05.576Z,46.58
2016-08-08T08:17:05.605Z,45.99
2016-08-08T08:18:05.637Z,46.58
2016-08-08T08:19:06.390Z,47.16
2016-08-08T08:20:05.694Z,47.42
2016-08-08T08:21:05.726Z,47.06
2016-08-08T08:22:05.765Z,46.67
2016-08-08T08:23:05.787Z,46.96
2016-08-08T08:24:05.818Z,48.1
2016-08-08T08:25:05.847Z,48.13
2016-08-08T08:26:05.878Z,48.22
2016-08-08T08:27:06.614Z,48
2016-08-08T08:28:05.953Z,47.83
2016-08-08T08:29:05.968Z,48.03
2016-08-08T08:30:05.999Z,46.67
2016-08-08T08:31:06.026Z,47.64
2016-08-08T08:32:06.060Z,46.67
2016-08-08T08:33:06.089Z,45.99
2016-08-08T08:34:06.120Z,46.09
2016-08-08T08:35:06.153Z,45.99
2016-08-08T08:36:06.183Z,46.58
2016-08-08T08:37:06.212Z,46.58
2016-08-08T08:38:06.243Z,45.8
2016-08-08T08:39:06.269Z,45.89
2016-08-08T08:40:06.302Z,46.58
2016-08-08T08:41:06.331Z,46.28
2016-08-08T08:42:06.361Z,46.6
2016-08-08T08:43:06.393Z,46.31
2016-08-08T08:44:07.132Z,46.01
2016-08-08T08:45:06.459Z,45.34
2016-08-08T08:46:06.484Z,44.85
2016-08-08T08:47:06.513Z,44.85
2016-08-08T08:48:06.547Z,45.62
2016-08-08T08:49:06.576Z,44.95
2016-08-08T08:50:07.316Z,44.46
2016-08-08T08:51:06.648Z,44.56
2016-08-08T08:52:06.679Z,43.4
2016-08-08T08:53:06.697Z,44.17
2016-08-08T08:54:06.730Z,44.17
2016-08-08T08:55:06.757Z,44.46
2016-08-08T08:56:06.793Z,44.85
2016-08-08T08:57:06.820Z,44.65
2016-08-08T08:58:06.857Z,45.04
2016-08-08T08:59:07.598Z,43.8
2016-08-08T09:00:06.914Z,42.83
2016-08-08T09:01:06.944Z,44.19
2016-08-08T09:02:06.976Z,43.32
2016-08-08T09:03:07.715Z,43.22
2016-08-08T09:04:07.037Z,43.8
2016-08-08T09:05:07.068Z,43.12
2016-08-08T09:06:07.098Z,42.74
2016-08-08T09:07:07.836Z,43.02
2016-08-08T09:08:07.174Z,43.12
2016-08-08T09:09:07.191Z,43.15
2016-08-08T09:10:07.222Z,40.91
2016-08-08T09:11:07.254Z,39.82
2016-08-08T09:12:07.993Z,38.27
2016-08-08T09:13:08.024Z,40.79
2016-08-08T09:14:07.345Z,40.31
2016-08-08T09:15:07.382Z,39.55
2016-08-08T09:16:07.408Z,38.96
2016-08-08T09:17:07.449Z,40.33
2016-08-08T09:18:07.466Z,41.1
2016-08-08T09:19:07.501Z,40.33
2016-08-08T09:20:07.532Z,39.84
2016-08-08T09:21:07.562Z,41.01
2016-08-08T09:22:08.301Z,40.62
2016-08-08T09:23:08.333Z,40.52
2016-08-08T09:24:07.672Z,40.33
2016-08-08T09:25:07.692Z,41.01
2016-08-08T09:26:07.722Z,41.32
2016-08-08T09:27:07.748Z,40.64
2016-08-08T09:28:07.778Z,41.01
2016-08-08T09:29:07.810Z,40.93
2016-08-08T09:30:07.843Z,40.64
2016-08-08T09:31:07.877Z,40.83
2016-08-08T09:32:07.906Z,40.73
2016-08-08T09:33:07.938Z,39.37
2016-08-08T09:34:08.677Z,38.79
2016-08-08T09:35:08.008Z,40.54
2016-08-08T09:36:08.031Z,39.96
2016-08-08T09:37:08.062Z,39.47
2016-08-08T09:38:08.092Z,39.18
2016-08-08T09:39:08.129Z,40.06
2016-08-08T09:40:08.155Z,40.64
2016-08-08T09:41:08.196Z,40.25
2016-08-08T09:42:08.220Z,40.56
2016-08-08T09:43:08.255Z,40.56
2016-08-08T09:44:08.279Z,41.05
2016-08-08T09:45:08.312Z,39
2016-08-08T09:46:09.056Z,36.77
2016-08-08T09:47:08.379Z,36.28
2016-08-08T09:48:08.408Z,36.28
2016-08-08T09:49:08.442Z,36.38
2016-08-08T09:50:08.483Z,37.93
2016-08-08T09:51:08.505Z,37.26
2016-08-08T09:52:08.535Z,37.06
2016-08-08T09:53:09.279Z,37.54
2016-08-08T09:54:08.604Z,38.52
2016-08-08T09:55:08.628Z,38.13
2016-08-08T09:56:08.665Z,38.52
2016-08-08T09:57:08.693Z,39
2016-08-08T09:58:08.725Z,38.62
2016-08-08T09:59:08.757Z,37.64
2016-08-08T10:00:08.790Z,38.73
2016-08-08T10:01:08.821Z,37.18
2016-08-08T10:02:08.852Z,38.24
2016-08-08T10:03:09.600Z,38.73
2016-08-08T10:04:08.916Z,37.85
2016-08-08T10:05:09.002Z,37.76
2016-08-08T10:06:08.998Z,38.64
2016-08-08T10:07:09.012Z,37.66
2016-08-08T10:08:09.045Z,37.18
2016-08-08T10:09:09.074Z,37.37
2016-08-08T10:10:09.108Z,37.76
2016-08-08T10:11:09.859Z,38.26
2016-08-08T10:12:09.170Z,37.77
2016-08-08T10:13:09.204Z,37.77
2016-08-08T10:14:09.234Z,38.36
2016-08-08T10:15:09.285Z,38.17
2016-08-08T10:16:09.297Z,37.87
2016-08-08T10:17:09.331Z,37.68
2016-08-08T10:18:09.365Z,37.68
2016-08-08T10:19:09.397Z,36.51
2016-08-08T10:20:09.427Z,35.93
2016-08-08T10:21:09.472Z,36.04
2016-08-08T10:22:09.493Z,36.63
2016-08-08T10:23:09.524Z,34.58
2016-08-08T10:24:09.558Z,35.46
2016-08-08T10:25:09.593Z,34.78
2016-08-08T10:26:09.623Z,33.9
2016-08-08T10:27:09.653Z,35.16
2016-08-08T10:28:10.393Z,35.53
2016-08-08T10:29:09.716Z,33.22
2016-08-08T10:30:09.747Z,34.27
2016-08-08T10:31:09.801Z,34.86
2016-08-08T10:32:09.816Z,33.7
2016-08-08T10:33:09.849Z,33.8
2016-08-08T10:34:09.878Z,35.65
2016-08-08T10:35:10.626Z,36.43
2016-08-08T10:36:09.946Z,35.75
2016-08-08T10:37:09.977Z,35.55
2016-08-08T10:38:10.009Z,34.19
2016-08-08T10:39:10.043Z,34.19
2016-08-08T10:40:10.088Z,35.55
2016-08-08T10:41:10.104Z,35.75
2016-08-08T10:42:10.138Z,36.33
2016-08-08T10:43:10.169Z,36.33
2016-08-08T10:44:10.201Z,35.65
2016-08-08T10:45:10.235Z,34.29
2016-08-08T10:46:10.268Z,33.29
2016-08-08T10:47:10.302Z,32.42
2016-08-08T10:48:10.332Z,32.43
2016-08-08T10:49:10.364Z,31.93
2016-08-08T10:50:10.397Z,32.82
2016-08-08T10:51:10.429Z,32.73
2016-08-08T10:52:10.462Z,33.01
2016-08-08T10:53:10.494Z,34.39
2016-08-08T10:54:10.529Z,34.39
2016-08-08T10:55:10.560Z,34
2016-08-08T10:56:10.604Z,34.48
2016-08-08T10:57:11.333Z,33.61
2016-08-08T10:58:10.657Z,34.48
2016-08-08T10:59:10.690Z,34.88
2016-08-08T11:00:10.723Z,35.46
2016-08-08T11:01:10.754Z,35.86
2016-08-08T11:02:10.794Z,35.77
2016-08-08T11:03:10.822Z,34.01
2016-08-08T11:04:10.852Z,33.8
2016-08-08T11:05:10.935Z,33.43
2016-08-08T11:06:10.917Z,32.35
2016-08-08T11:07:10.950Z,31.95
2016-08-08T11:08:10.982Z,33.02
2016-08-08T11:09:11.014Z,31.37
2016-08-08T11:10:11.049Z,31.66
2016-08-08T11:11:11.079Z,33.88
2016-08-08T11:12:11.128Z,35.46
2016-08-08T11:13:11.855Z,36.32
2016-08-08T11:14:11.176Z,35.75
2016-08-08T11:15:11.210Z,36.43
2016-08-08T11:16:11.242Z,35.08
2016-08-08T11:17:11.987Z,35.57
2016-08-08T11:18:11.319Z,36.45
2016-08-08T11:19:11.346Z,35.77
2016-08-08T11:20:11.372Z,35.96
2016-08-08T11:21:11.407Z,35.67
2016-08-08T11:22:12.145Z,35.38
2016-08-08T11:23:11.469Z,35.77
2016-08-08T11:24:11.504Z,36.45
2016-08-08T11:25:11.535Z,36.47
2016-08-08T11:26:11.568Z,35.88
2016-08-08T11:27:11.602Z,35.88
2016-08-08T11:28:11.632Z,36.66
2016-08-08T11:29:11.690Z,36.18
2016-08-08T11:30:11.698Z,36.66
2016-08-08T11:31:11.760Z,36.08
2016-08-08T11:32:11.763Z,36.47
2016-08-08T11:33:11.808Z,35.69
2016-08-08T11:34:12.537Z,35.02
2016-08-08T11:35:12.571Z,34.81
2016-08-08T11:36:11.896Z,31.6
2016-08-08T11:37:11.926Z,31.9
2016-08-08T11:38:11.961Z,31.1
2016-08-08T11:39:12.007Z,32.68
2016-08-08T11:40:12.028Z,30.42
2016-08-08T11:41:12.057Z,31.3
2016-08-08T11:42:12.093Z,32.18
2016-08-08T11:43:12.129Z,32.37
2016-08-08T11:44:12.176Z,32.96
2016-08-08T11:45:12.255Z,33.34
2016-08-08T11:46:12.239Z,33.15
2016-08-08T11:47:12.308Z,33.54
2016-08-08T11:48:12.289Z,35
2016-08-08T11:49:12.323Z,34.14
2016-08-08T11:50:12.358Z,34.73
2016-08-08T11:51:12.387Z,32.29
2016-08-08T11:52:12.433Z,31.22
2016-08-08T11:53:12.455Z,31.3
2016-08-08T11:54:12.491Z,30.54
2016-08-08T11:55:12.519Z,32.86
2016-08-08T11:56:12.553Z,31.49
2016-08-08T11:57:12.588Z,31.2
2016-08-08T11:58:12.619Z,30.81
2016-08-08T11:59:12.650Z,31.01
2016-08-08T12:00:12.686Z,32.47
2016-08-08T12:01:12.718Z,30.91
2016-08-08T12:02:12.751Z,30.81
2016-08-08T12:03:12.914Z,31.59
2016-08-08T12:04:12.857Z,31.51
2016-08-08T12:05:13.558Z,32.08
2016-08-08T12:06:12.900Z,33.73
2016-08-08T12:07:12.912Z,35.9
2016-08-08T12:08:13.000Z,35.02
2016-08-08T12:09:12.981Z,34.24
2016-08-08T12:10:13.014Z,34.05
2016-08-08T12:11:13.045Z,33.17
2016-08-08T12:12:13.084Z,32.78
2016-08-08T12:13:13.825Z,33.28
2016-08-08T12:15:13.237Z,34.26
2016-08-08T12:16:13.212Z,32.5
2016-08-08T12:17:13.327Z,33.67
2016-08-08T12:18:13.279Z,33.85
2016-08-08T12:19:13.311Z,33.36
2016-08-08T12:20:13.398Z,31.7
2016-08-08T12:21:13.393Z,33.07
2016-08-08T12:22:13.416Z,32.97
2016-08-08T12:23:13.444Z,31.33
2016-08-08T12:24:13.475Z,30.94
2016-08-08T12:25:13.509Z,32.99
2016-08-08T12:26:13.545Z,32.31
2016-08-08T12:27:13.576Z,32.5
2016-08-08T12:28:13.611Z,31.33
2016-08-08T12:30:13.676Z,30.65
2016-08-08T12:31:13.713Z,29.67
2016-08-08T12:32:13.742Z,28.99
2016-08-08T12:33:13.773Z,30.16
2016-08-08T12:34:13.808Z,31.72
2016-08-08T12:35:13.844Z,32.68
2016-08-08T12:36:13.878Z,31.72
2016-08-08T12:37:13.907Z,29.28
2016-08-08T12:38:13.941Z,29.47
2016-08-08T12:39:13.975Z,28.5
2016-08-08T12:40:14.008Z,28.3
2016-08-08T12:41:14.041Z,30.26
2016-08-08T12:42:14.073Z,30.35
2016-08-08T12:43:14.112Z,28.79
2016-08-08T12:44:14.150Z,28.3
2016-08-08T12:45:14.186Z,29.18
2016-08-08T12:46:14.208Z,30.16
2016-08-08T12:47:14.243Z,31.52
2016-08-08T12:48:14.274Z,32.4
2016-08-08T12:49:14.307Z,33.18
2016-08-08T12:50:14.341Z,33.77
2016-08-08T12:51:14.373Z,33.59
2016-08-08T12:52:14.409Z,31.62
2016-08-08T12:53:14.461Z,24.8
2016-08-08T12:54:14.476Z,25.37
2016-08-08T12:55:14.511Z,23.91
2016-08-08T12:56:14.542Z,25.27
2016-08-08T12:57:14.577Z,23.82
2016-08-08T12:58:15.319Z,23.91
2016-08-08T12:59:15.365Z,25.76
2016-08-08T13:00:14.676Z,27.42
2016-08-08T13:01:14.709Z,26.35
2016-08-08T13:02:14.745Z,25.08
2016-08-08T13:03:14.783Z,24.11
2016-08-08T13:04:14.808Z,23.82
2016-08-08T13:05:15.552Z,23.91
2016-08-08T13:06:14.877Z,25.27